Treetop, North Carolina
Current Conditions -  °F | °C
As of 11:15 PM on Thursday 27 Nov 2014 (Local Time) from KGEV Reporting Station
Light Snow Light Snow  
Wind Chill: 11°   Ceiling: 2300
Heat Index: 24°   Visibility: 10mi
Dew Point: 14°   Wind: 14mph
Humidity: 68%   Direction: 330°NNW
Pressure: 30.18"   Gusts: 21mph
Location:  36.358°N, 81.4709°W
Report Text: KGEV 280415Z AUTO 33012G18KT 300V360 10SM -SN OVC023 M05/M10 A3018 RMK AO2 T10471098
Loading
Personal Weather Stations






























Interactive Weather Map New forecast layout! Learn more

10-Day Weather Forecast

Advertisements
Track Severe Weather on mobile